PILOTS ONLINE: 230    ATC ONLINE: 24

NZWN - Wellington International Airport

Location

IATA WLG
City Wellington
Country  New Zealand
Latitude 41° 19' 37" S
Longitude 174° 48' 17" E
Elevation 41 ft
Type Large Airport

Runways

16/34 6352 ft / 148 ft

Weather

METAR
2014/08/01 07:30
NZWN 010730Z AUTO 01021KT 4300 -SHRA HZ SCT012/// BKN019/// BKN027/// 13/11 Q1019 TEMPO BKN013
TAF
2014/08/01 07:39
TAF 
      AMD TAF 
      AMD NZWN 010736Z 0107/0206 36020G35KT 9999 -RA SCT014 BKN025 
      TEMPO 0107/0112 3000 RADZ BKN012 
      TEMPO 0112/0118 6000 RA BKN012 
      BECMG 0113/0115 36030G40KT 
      BECMG 0123/0201 36040G55KT 
      TEMPO 0200/0206 6000 RA BKN012

Outbound flights

Inbound flights